createdAt,value
2023-02-14T00:04:05.952Z,4.16
2023-02-14T00:09:15.806Z,4.13
2023-02-14T00:14:39.907Z,4.19
2023-02-14T00:19:46.073Z,4.23
2023-02-14T00:24:52.019Z,4.23
2023-02-14T00:29:59.753Z,4.21
2023-02-14T00:35:06.108Z,4.25
2023-02-14T00:40:10.735Z,4.24
2023-02-14T00:45:14.720Z,4.21
2023-02-14T00:50:19.354Z,4.17
2023-02-14T00:55:23.987Z,4.20
2023-02-14T01:00:29.179Z,4.19
2023-02-14T01:05:34.116Z,4.15
2023-02-14T01:10:39.638Z,4.12
2023-02-14T01:15:47.707Z,4.14
2023-02-14T01:20:51.476Z,4.13
2023-02-14T01:25:55.690Z,4.10
2023-02-14T01:31:11.876Z,4.10
2023-02-14T01:36:24.240Z,4.11
2023-02-14T01:41:31.298Z,4.10
2023-02-14T01:46:37.732Z,4.06
2023-02-14T01:51:55.718Z,4.02
2023-02-14T01:57:06.894Z,3.96
2023-02-14T02:02:12.444Z,3.94
2023-02-14T02:07:25.573Z,3.95
2023-02-14T02:12:30.994Z,3.96
2023-02-14T02:17:54.606Z,3.98
2023-02-14T02:23:11.644Z,4.04
2023-02-14T02:28:43.040Z,4.02
2023-02-14T02:34:13.312Z,3.97
2023-02-14T02:39:24.508Z,3.95
2023-02-14T02:44:43.625Z,3.96
2023-02-14T02:50:13.001Z,3.97
2023-02-14T02:56:01.447Z,3.97
2023-02-14T03:01:14.258Z,3.96
2023-02-14T03:06:18.805Z,3.98
2023-02-14T03:11:25.394Z,3.95
2023-02-14T03:16:48.363Z,3.90
2023-02-14T03:22:18.605Z,3.91
2023-02-14T03:27:34.612Z,3.96
2023-02-14T03:32:57.275Z,3.94
2023-02-14T03:38:11.140Z,3.86
2023-02-14T03:43:35.048Z,3.78
2023-02-14T03:48:41.583Z,3.68
2023-02-14T03:53:48.041Z,3.63
2023-02-14T03:58:56.301Z,3.68
2023-02-14T04:04:01.530Z,3.70
2023-02-14T04:09:06.377Z,3.66
2023-02-14T04:14:09.798Z,3.65
2023-02-14T04:19:26.974Z,3.66
2023-02-14T04:24:31.850Z,3.65
2023-02-14T04:29:41.853Z,3.59
2023-02-14T04:34:47.288Z,3.54
2023-02-14T04:39:52.156Z,3.50
2023-02-14T04:44:56.965Z,3.43
2023-02-14T04:50:02.188Z,3.38
2023-02-14T04:55:08.943Z,3.39
2023-02-14T05:00:14.566Z,3.39
2023-02-14T05:05:19.048Z,3.38
2023-02-14T05:10:22.469Z,3.38
2023-02-14T05:15:27.789Z,3.43
2023-02-14T05:20:33.147Z,3.43
2023-02-14T05:25:38.595Z,3.43
2023-02-14T05:30:43.680Z,3.38
2023-02-14T05:35:48.361Z,3.37
2023-02-14T05:40:53.082Z,3.34
2023-02-14T05:45:57.967Z,3.32
2023-02-14T05:51:10.225Z,3.31
2023-02-14T05:56:14.072Z,3.36
2023-02-14T06:01:17.510Z,3.37
2023-02-14T06:06:21.135Z,3.32
2023-02-14T06:11:25.603Z,3.31
2023-02-14T06:16:30.265Z,3.31
2023-02-14T06:21:34.940Z,3.29
2023-02-14T06:26:39.279Z,3.26
2023-02-14T06:31:44.880Z,3.26
2023-02-14T06:36:50.335Z,3.26
2023-02-14T06:41:55.119Z,3.26
2023-02-14T06:47:01.330Z,3.25
2023-02-14T06:52:06.499Z,3.27
2023-02-14T06:57:10.821Z,3.30
2023-02-14T07:02:16.511Z,3.34
2023-02-14T07:07:21.260Z,3.30
2023-02-14T07:12:25.983Z,3.27
2023-02-14T07:17:30.002Z,3.30
2023-02-14T07:22:34.212Z,3.34
2023-02-14T07:27:41.068Z,3.33
2023-02-14T07:32:45.787Z,3.31
2023-02-14T07:37:53.947Z,3.31
2023-02-14T07:42:58.802Z,3.37
2023-02-14T07:48:02.757Z,3.41
2023-02-14T07:53:06.419Z,3.43
2023-02-14T07:58:10.466Z,3.51
2023-02-14T08:03:14.714Z,3.52
2023-02-14T08:08:18.863Z,3.53
2023-02-14T08:13:22.885Z,3.63
2023-02-14T08:18:29.163Z,3.64
2023-02-14T08:23:34.321Z,3.63
2023-02-14T08:28:38.300Z,3.68
2023-02-14T08:33:45.186Z,3.80
2023-02-14T08:38:50.408Z,3.87
2023-02-14T08:43:54.742Z,3.86
2023-02-14T08:48:59.354Z,3.85
2023-02-14T08:54:04.241Z,3.94
2023-02-14T08:59:09.034Z,3.99
2023-02-14T09:04:13.600Z,3.98
2023-02-14T09:09:22.215Z,3.94
2023-02-14T09:14:25.989Z,3.98
2023-02-14T09:19:30.947Z,3.97
2023-02-14T09:24:41.188Z,3.93
2023-02-14T09:29:46.596Z,3.92
2023-02-14T09:34:55.416Z,3.89
2023-02-14T09:40:00.778Z,3.94
2023-02-14T09:45:13.206Z,3.99
2023-02-14T09:50:31.664Z,4.06
2023-02-14T09:55:48.076Z,4.11
2023-02-14T10:00:56.177Z,4.16
2023-02-14T10:06:11.729Z,4.20
2023-02-14T10:11:21.050Z,4.25
2023-02-14T10:16:35.213Z,4.28
2023-02-14T10:21:50.246Z,4.31
2023-02-14T10:27:03.292Z,4.39
2023-02-14T10:32:20.546Z,4.46
2023-02-14T10:38:18.886Z,4.49
2023-02-14T10:43:50.330Z,4.53
2023-02-14T10:49:27.149Z,4.60
2023-02-14T10:54:42.332Z,4.67
2023-02-14T11:00:01.076Z,4.74
2023-02-14T11:05:08.513Z,4.80
2023-02-14T11:10:15.752Z,4.85
2023-02-14T11:15:28.620Z,4.91
2023-02-14T11:20:33.387Z,4.90
2023-02-14T11:25:38.102Z,4.89
2023-02-14T11:30:46.758Z,4.81
2023-02-14T11:35:53.122Z,4.83
2023-02-14T11:40:59.593Z,4.88
2023-02-14T11:46:16.725Z,4.94
2023-02-14T11:51:29.586Z,5.02
2023-02-14T11:56:57.624Z,5.07
2023-02-14T12:02:25.032Z,5.05
2023-02-14T12:07:36.941Z,5.01
2023-02-14T12:12:51.779Z,4.94
2023-02-14T12:18:24.291Z,4.88
2023-02-14T12:23:43.144Z,4.89
2023-02-14T12:28:59.343Z,4.96
2023-02-14T12:34:05.755Z,5.04
2023-02-14T12:39:23.066Z,4.98
2023-02-14T12:45:07.221Z,4.96
2023-02-14T12:50:52.281Z,4.94
2023-02-14T12:56:36.005Z,4.93
2023-02-14T13:02:02.684Z,4.95
2023-02-14T13:07:28.888Z,4.95
2023-02-14T13:12:40.725Z,4.88
2023-02-14T13:17:58.334Z,4.93
2023-02-14T13:23:07.019Z,4.93
2023-02-14T13:28:17.591Z,4.85
2023-02-14T13:33:39.711Z,4.84
2023-02-14T13:38:56.279Z,4.83
2023-02-14T13:44:02.957Z,4.79
2023-02-14T13:49:37.568Z,4.74
2023-02-14T13:54:51.196Z,4.77
2023-02-14T14:00:17.166Z,4.79
2023-02-14T14:05:51.079Z,4.79
2023-02-14T14:11:01.221Z,4.80
2023-02-14T14:16:25.389Z,4.87
2023-02-14T14:21:36.020Z,4.91
2023-02-14T14:26:54.153Z,4.84
2023-02-14T14:31:59.429Z,4.78
2023-02-14T14:37:08.198Z,4.74
2023-02-14T14:42:17.920Z,4.66
2023-02-14T14:47:29.467Z,4.70
2023-02-14T14:52:39.938Z,4.72
2023-02-14T14:57:53.711Z,4.69
2023-02-14T15:03:08.949Z,4.64
2023-02-14T15:08:16.249Z,4.61
2023-02-14T15:13:55.417Z,4.59
2023-02-14T15:19:13.148Z,4.60
2023-02-14T15:24:20.004Z,4.57
2023-02-14T15:29:32.792Z,4.54
2023-02-14T15:34:38.532Z,4.48
2023-02-14T15:39:47.505Z,4.44
2023-02-14T15:44:52.481Z,4.39
2023-02-14T15:49:56.476Z,4.38
2023-02-14T15:55:00.364Z,4.42
2023-02-14T16:00:17.252Z,4.41
2023-02-14T16:05:22.099Z,4.32
2023-02-14T16:10:29.397Z,4.27
2023-02-14T16:15:36.666Z,4.29
2023-02-14T16:20:51.665Z,4.36
2023-02-14T16:26:00.367Z,4.38
2023-02-14T16:31:11.316Z,4.35
2023-02-14T16:36:27.698Z,4.30
2023-02-14T16:41:33.867Z,4.31
2023-02-14T16:46:38.092Z,4.30
2023-02-14T16:51:45.766Z,4.30
2023-02-14T16:56:58.622Z,4.30
2023-02-14T17:02:02.754Z,4.27
2023-02-14T17:07:07.445Z,4.31
2023-02-14T17:12:16.902Z,4.33
2023-02-14T17:17:21.307Z,4.33
2023-02-14T17:22:25.052Z,4.26
2023-02-14T17:27:29.816Z,4.23
2023-02-14T17:32:35.765Z,4.27
2023-02-14T17:37:40.817Z,4.26
2023-02-14T17:42:46.339Z,4.25
2023-02-14T17:47:50.279Z,4.22
2023-02-14T17:53:03.455Z,4.19
2023-02-14T17:58:19.195Z,4.21
2023-02-14T18:03:26.176Z,4.18
2023-02-14T18:08:32.163Z,4.14
2023-02-14T18:13:36.401Z,4.12
2023-02-14T18:18:40.673Z,4.12
2023-02-14T18:23:45.407Z,4.14
2023-02-14T18:28:52.297Z,4.18
2023-02-14T18:33:57.314Z,4.18
2023-02-14T18:39:01.458Z,4.14
2023-02-14T18:44:05.811Z,4.11
2023-02-14T18:49:09.791Z,4.11
2023-02-14T18:54:14.941Z,4.15
2023-02-14T18:59:18.464Z,4.15
2023-02-14T19:04:22.044Z,4.12
2023-02-14T19:09:27.938Z,4.01
2023-02-14T19:14:31.318Z,3.90
2023-02-14T19:19:35.428Z,3.85
2023-02-14T19:24:39.934Z,3.78
2023-02-14T19:29:44.914Z,3.64
2023-02-14T19:34:49.074Z,3.40
2023-02-14T19:39:52.746Z,3.26
2023-02-14T19:44:57.534Z,3.17
2023-02-14T19:50:01.785Z,3.06
2023-02-14T19:55:08.120Z,2.90
2023-02-14T20:00:14.626Z,2.71
2023-02-14T20:05:20.798Z,2.60
2023-02-14T20:10:27.286Z,2.54
2023-02-14T20:15:34.044Z,2.52
2023-02-14T20:20:58.463Z,2.42
2023-02-14T20:26:03.775Z,2.30
2023-02-14T20:31:11.549Z,2.29
2023-02-14T20:36:16.255Z,2.35
2023-02-14T20:41:19.792Z,2.41
2023-02-14T20:46:23.630Z,2.44
2023-02-14T20:51:29.017Z,2.42
2023-02-14T20:56:34.003Z,2.36
2023-02-14T21:01:38.988Z,2.31
2023-02-14T21:06:43.098Z,2.35
2023-02-14T21:11:50.741Z,2.39
2023-02-14T21:16:55.721Z,2.40
2023-02-14T21:22:01.604Z,2.40
2023-02-14T21:27:06.474Z,2.36
2023-02-14T21:32:11.680Z,2.32
2023-02-14T21:37:16.293Z,2.36
2023-02-14T21:42:22.708Z,2.39
2023-02-14T21:47:29.492Z,2.43
2023-02-14T21:52:35.510Z,2.47
2023-02-14T21:57:40.036Z,2.51
2023-02-14T22:02:44.807Z,2.48
2023-02-14T22:07:49.780Z,2.46
2023-02-14T22:12:56.661Z,2.55
2023-02-14T22:18:01.370Z,2.60
2023-02-14T22:23:05.650Z,2.57
2023-02-14T22:28:12.431Z,2.54
2023-02-14T22:33:17.095Z,2.56
2023-02-14T22:38:24.706Z,2.59
2023-02-14T22:43:31.059Z,2.61
2023-02-14T22:48:38.276Z,2.56
2023-02-14T22:53:44.474Z,2.58
2023-02-14T22:58:54.161Z,2.61
2023-02-14T23:04:00.477Z,2.63
2023-02-14T23:09:08.071Z,2.64
2023-02-14T23:14:33.570Z,2.66
2023-02-14T23:19:58.446Z,2.69
2023-02-14T23:25:06.721Z,2.70
2023-02-14T23:30:16.800Z,2.70
2023-02-14T23:35:22.222Z,2.72
2023-02-14T23:40:28.542Z,2.77
2023-02-14T23:45:36.986Z,2.83
2023-02-14T23:50:43.323Z,2.87
2023-02-14T23:55:49.075Z,2.89
